Time;durP1;ratioP1;P1;durP2;ratioP2;P2;SDS_P1;SDS_P2;PMS_P1;PMS_P2;Temp;Humidity;BMP_temperature;BMP_pressure;BME280_temperature;BME280_humidity;BME280_pressure;Samples;Min_cycle;Max_cycle;Signal;HPM_P1;HPM_P2
2021/05/22 00:00:12;;;;;;;10.60;6.35;;;;;;;31.61;18.39;94686.91;5015129;28;20053;-46
2021/05/22 00:02:40;;;;;;;7.82;5.72;;;;;;;31.48;18.26;94678.63;5014833;28;20369;-48
2021/05/22 00:05:07;;;;;;;6.97;5.72;;;;;;;31.36;18.47;94670.38;5032654;28;20048;-51
2021/05/22 00:07:35;;;;;;;7.10;5.93;;;;;;;31.41;18.36;94673.38;5034216;28;20050;-47
2021/05/22 00:10:04;;;;;;;6.30;5.45;;;;;;;31.63;17.92;94681.88;5034132;28;20519;-50
2021/05/22 00:12:31;;;;;;;8.90;6.05;;;;;;;30.90;18.76;94677.25;5016013;28;20057;-48
2021/05/22 00:14:59;;;;;;;6.43;5.78;;;;;;;32.03;17.54;94657.59;5033901;28;20042;-46
2021/05/22 00:17:26;;;;;;;6.53;5.38;;;;;;;31.81;18.03;94663.41;5048523;28;20487;-48
2021/05/22 00:19:53;;;;;;;7.78;5.35;;;;;;;31.43;18.26;94667.56;5024147;28;20049;-47
2021/05/22 00:22:20;;;;;;;7.05;5.28;;;;;;;31.57;18.22;94668.06;5014340;28;20053;-47
2021/05/22 00:24:47;;;;;;;6.57;4.80;;;;;;;31.41;18.05;94667.19;4996755;28;20448;-47
2021/05/22 00:27:14;;;;;;;6.13;5.00;;;;;;;31.48;17.96;94661.66;5014134;28;20049;-46
2021/05/22 00:29:41;;;;;;;5.25;4.60;;;;;;;30.96;18.39;94670.22;5014116;28;20479;-45
2021/05/22 00:32:08;;;;;;;6.32;4.35;;;;;;;31.11;18.08;94658.03;5014765;28;20061;-46
2021/05/22 00:34:36;;;;;;;7.05;4.55;;;;;;;31.17;18.25;94667.22;4997172;28;20042;-48
2021/05/22 00:37:07;;;;;;;5.70;5.07;;;;;;;31.44;18.18;94661.72;5013795;28;20049;-46
2021/05/22 00:39:37;;;;;;;5.78;4.85;;;;;;;31.24;18.50;94663.66;5013456;28;20448;-45
2021/05/22 00:42:06;;;;;;;6.32;4.80;;;;;;;31.15;18.50;94666.84;5014818;28;20046;-45
2021/05/22 00:44:33;;;;;;;5.53;4.50;;;;;;;31.45;18.26;94651.69;5014236;28;20433;-46
2021/05/22 00:47:02;;;;;;;7.78;4.53;;;;;;;30.82;18.75;94659.66;5025222;28;20071;-45
2021/05/22 00:49:30;;;;;;;4.65;4.00;;;;;;;31.63;17.58;94654.84;5034189;28;20474;-46
2021/05/22 00:51:59;;;;;;;4.38;3.97;;;;;;;31.43;17.80;94664.84;5034532;28;20519;-46
2021/05/22 00:54:26;;;;;;;6.82;4.10;;;;;;;31.26;18.07;94656.66;5016748;28;20049;-48
2021/05/22 00:56:53;;;;;;;5.78;3.70;;;;;;;30.90;18.21;94656.44;5016849;28;20045;-47
2021/05/22 00:59:20;;;;;;;4.60;4.10;;;;;;;30.60;18.49;94654.56;5034048;28;20056;-45
2021/05/22 01:01:47;;;;;;;8.43;4.00;;;;;;;30.80;18.13;94651.19;5033172;28;20052;-47
2021/05/22 01:04:19;;;;;;;6.32;4.30;;;;;;;30.34;18.48;94644.50;5034393;28;20044;-51
2021/05/22 01:06:47;;;;;;;4.68;4.20;;;;;;;30.75;18.22;94638.19;5033903;28;20049;-48
2021/05/22 01:09:19;;;;;;;6.32;4.00;;;;;;;30.52;18.59;94638.88;5033501;28;20057;-50
2021/05/22 01:11:56;;;;;;;5.68;3.90;;;;;;;31.03;18.01;94632.34;5015910;28;20372;-46
2021/05/22 01:14:47;;;;;;;4.40;3.90;;;;;;;30.78;18.23;94640.81;5032323;28;20049;-45
2021/05/22 01:17:22;;;;;;;6.50;4.53;;;;;;;30.72;18.10;94641.69;4993155;28;20054;-50
2021/05/22 01:20:16;;;;;;;6.47;4.30;;;;;;;30.85;18.03;94646.09;5025952;28;20060;-45
2021/05/22 01:22:50;;;;;;;7.78;4.60;;;;;;;31.46;17.28;94650.50;5015895;28;20060;-48
2021/05/22 01:25:37;;;;;;;6.80;4.72;;;;;;;30.75;17.93;94646.28;5015824;28;20068;-47
2021/05/22 01:28:06;;;;;;;6.03;4.57;;;;;;;31.16;17.83;94640.59;5033183;28;20052;-45
2021/05/22 01:30:34;;;;;;;5.47;4.65;;;;;;;30.83;18.27;94656.53;5033505;28;20060;-47
2021/05/22 01:33:03;;;;;;;6.95;4.80;;;;;;;30.46;18.66;94645.91;5015666;28;20117;-52
2021/05/22 01:35:35;;;;;;;5.60;4.47;;;;;;;30.54;18.33;94650.78;5033062;28;20084;-49
2021/05/22 01:38:08;;;;;;;6.22;4.95;;;;;;;31.01;17.97;94647.41;5033180;28;20050;-48
2021/05/22 01:40:36;;;;;;;6.22;4.97;;;;;;;30.29;18.23;94651.13;5033124;28;20041;-51
2021/05/22 01:43:05;;;;;;;7.07;4.35;;;;;;;30.05;18.90;94652.97;5033116;28;20392;-45
2021/05/22 01:45:34;;;;;;;5.10;4.60;;;;;;;30.69;18.10;94652.13;5032907;28;20045;-46
2021/05/22 01:48:08;;;;;;;7.40;4.60;;;;;;;30.30;18.63;94658.03;5015272;28;20045;-50
2021/05/22 01:50:39;;;;;;;6.72;4.50;;;;;;;30.83;17.34;94655.78;5034786;28;20444;-55
2021/05/22 01:53:09;;;;;;;7.13;4.88;;;;;;;29.77;18.60;94662.09;5019325;28;20052;-47
2021/05/22 01:55:38;;;;;;;5.63;4.63;;;;;;;30.41;17.94;94660.56;5010843;28;20468;-50
2021/05/22 01:58:06;;;;;;;6.13;4.63;;;;;;;30.24;18.53;94658.91;5017126;28;20052;-46
2021/05/22 02:00:34;;;;;;;7.78;4.47;;;;;;;30.64;18.03;94659.91;5016626;28;20053;-47
2021/05/22 02:03:17;;;;;;;10.63;4.90;;;;;;;30.79;17.80;94657.78;5036899;28;20387;-45
2021/05/22 02:05:46;;;;;;;5.13;4.50;;;;;;;30.73;17.76;94656.72;5018667;28;20045;-46
2021/05/22 02:08:19;;;;;;;6.65;4.80;;;;;;;29.85;18.79;94653.94;5019663;28;20063;-46
2021/05/22 02:10:48;;;;;;;6.88;4.55;;;;;;;30.95;17.64;94647.09;5019557;28;20041;-46
2021/05/22 02:13:16;;;;;;;7.00;4.18;;;;;;;30.54;17.99;94645.38;5037102;28;20049;-46
2021/05/22 02:15:52;;;;;;;6.07;4.70;;;;;;;30.17;18.29;94642.78;5035572;28;20484;-45
2021/05/22 02:18:20;;;;;;;4.57;4.13;;;;;;;30.01;18.35;94638.75;5016601;28;20380;-46
2021/05/22 02:20:48;;;;;;;6.55;4.65;;;;;;;29.61;18.70;94628.81;4999267;28;20487;-45
2021/05/22 02:23:16;;;;;;;8.38;4.70;;;;;;;29.81;18.35;94632.44;5018872;28;20045;-47
2021/05/22 02:25:43;;;;;;;7.20;5.15;;;;;;;29.83;18.41;94626.63;5036148;28;20432;-46
2021/05/22 02:28:10;;;;;;;5.60;5.00;;;;;;;30.17;18.19;94626.63;5035608;28;20045;-45
2021/05/22 02:30:40;;;;;;;6.13;4.68;;;;;;;30.39;17.77;94622.47;5036559;28;20049;-46
2021/05/22 02:33:10;;;;;;;7.60;4.95;;;;;;;30.02;18.42;94632.19;5036956;28;20333;-47
2021/05/22 02:35:40;;;;;;;7.03;4.80;;;;;;;30.51;17.76;94630.03;5036558;28;20672;-45
2021/05/22 02:38:21;;;;;;;7.15;4.75;;;;;;;30.83;17.64;94639.59;5036611;28;20060;-47
2021/05/22 02:40:52;;;;;;;10.32;5.78;;;;;;;30.11;18.38;94633.63;5036370;28;20048;-46
2021/05/22 02:43:19;;;;;;;6.85;4.68;;;;;;;30.17;18.31;94638.16;5018832;28;20045;-45
2021/05/22 02:45:46;;;;;;;7.88;4.78;;;;;;;30.24;18.57;94635.41;5017920;28;20045;-52
2021/05/22 02:48:18;;;;;;;5.85;4.72;;;;;;;29.82;18.82;94639.34;5018236;28;20064;-54
2021/05/22 02:50:47;;;;;;;7.53;5.07;;;;;;;29.23;19.28;94636.09;5018366;28;20440;-46
2021/05/22 02:53:21;;;;;;;7.20;5.25;;;;;;;29.81;18.50;94647.84;5018866;28;20049;-45
2021/05/22 02:55:49;;;;;;;6.35;5.20;;;;;;;29.79;18.92;94645.53;5018603;28;20478;-46
2021/05/22 02:58:38;;;;;;;5.70;4.90;;;;;;;29.84;19.11;94647.03;5036002;28;20038;-49
2021/05/22 03:01:09;;;;;;;6.72;5.00;;;;;;;30.19;18.44;94653.94;5035905;28;20448;-47
2021/05/22 03:03:40;;;;;;;6.40;5.05;;;;;;;30.50;18.26;94650.06;5036045;28;20077;-51
2021/05/22 03:06:07;;;;;;;6.18;4.90;;;;;;;30.15;18.51;94637.03;5033625;28;20041;-45
2021/05/22 03:08:46;;;;;;;5.45;4.80;;;;;;;30.66;17.92;94644.84;5016116;28;20448;-52
2021/05/22 03:11:15;;;;;;;6.45;4.80;;;;;;;30.55;18.39;94648.84;5016160;28;20177;-47
2021/05/22 03:13:42;;;;;;;6.30;4.80;;;;;;;30.28;18.33;94660.38;4998681;28;20060;-51
2021/05/22 03:16:10;;;;;;;6.40;5.22;;;;;;;29.73;18.99;94668.72;5018625;28;20053;-47
2021/05/22 03:18:37;;;;;;;7.15;5.10;;;;;;;30.54;18.01;94672.34;5015844;28;20049;-45
2021/05/22 03:21:11;;;;;;;6.25;5.30;;;;;;;30.66;18.49;94677.22;5016066;28;20322;-46
2021/05/22 03:23:41;;;;;;;6.07;5.07;;;;;;;30.57;18.61;94682.31;5015847;28;20045;-46
2021/05/22 03:26:24;;;;;;;6.30;5.30;;;;;;;30.39;18.72;94684.50;5014717;28;20046;-47
2021/05/22 03:28:51;;;;;;;8.05;5.78;;;;;;;30.45;18.84;94696.38;5015150;28;20054;-48
2021/05/22 03:31:18;;;;;;;6.68;5.40;;;;;;;30.42;18.99;94709.88;5015782;28;20042;-45
2021/05/22 03:33:45;;;;;;;7.95;5.38;;;;;;;30.07;19.37;94699.13;5016089;28;20053;-48
2021/05/22 03:36:13;;;;;;;6.53;5.93;;;;;;;30.26;19.17;94694.31;5015282;28;20061;-48
2021/05/22 03:38:41;;;;;;;7.18;5.18;;;;;;;29.81;19.34;94697.09;5015897;28;20457;-46
2021/05/22 03:41:13;;;;;;;6.35;5.43;;;;;;;29.87;19.34;94692.03;5015820;28;20046;-45
2021/05/22 03:43:40;;;;;;;;;;;;;;;30.10;19.12;94707.59;5016356;28;20054;-46
2021/05/22 03:46:07;;;;;;;7.40;5.00;;;;;;;30.26;19.10;94710.47;5018807;28;19950;-45
2021/05/22 03:48:34;;;;;;;8.07;4.95;;;;;;;30.34;18.86;94715.38;5035627;28;20364;-51
2021/05/22 03:51:02;;;;;;;8.13;5.18;;;;;;;30.95;18.13;94722.66;5035291;28;20052;-46
2021/05/22 03:53:29;;;;;;;11.63;5.65;;;;;;;30.17;18.94;94720.97;5035553;28;20049;-46
2021/05/22 03:55:57;;;;;;;10.48;5.32;;;;;;;30.42;18.73;94729.53;5035207;28;20049;-49
2021/05/22 03:58:25;;;;;;;7.35;5.47;;;;;;;29.66;19.78;94720.69;5034895;28;20056;-45
2021/05/22 04:00:55;;;;;;;6.97;5.53;;;;;;;29.82;19.53;94719.41;5035465;28;20049;-49
2021/05/22 04:03:23;;;;;;;8.52;6.20;;;;;;;29.70;20.03;94718.00;5035349;28;20503;-46
2021/05/22 04:05:51;;;;;;;6.20;4.68;;;;;;;31.16;18.68;94711.59;5032936;28;20448;-46
2021/05/22 04:08:18;;;;;;;6.82;4.60;;;;;;;32.93;16.85;94704.03;5024427;28;20461;-48
2021/05/22 04:10:45;;;;;;;6.20;5.60;;;;;;;32.33;17.41;94695.25;5033010;28;20468;-52
2021/05/22 04:13:13;;;;;;;7.00;5.25;;;;;;;31.66;18.05;94694.53;5034098;28;20060;-47
2021/05/22 04:15:41;;;;;;;9.80;6.50;;;;;;;30.65;19.64;94691.88;5034395;28;20053;-44
2021/05/22 04:18:12;;;;;;;6.68;5.40;;;;;;;30.90;19.18;94694.22;5018301;28;20049;-65
2021/05/22 04:20:42;;;;;;;6.53;5.45;;;;;;;30.62;19.41;94697.31;5015280;28;20060;-47
2021/05/22 04:23:09;;;;;;;8.23;5.85;;;;;;;30.84;19.39;94700.47;5025712;28;20053;-53
2021/05/22 04:25:37;;;;;;;6.15;5.50;;;;;;;30.79;19.46;94698.25;5034581;28;20056;-61
2021/05/22 04:28:04;;;;;;;6.40;5.63;;;;;;;30.42;19.96;94707.94;5022055;28;20049;-49
2021/05/22 04:30:32;;;;;;;9.02;6.15;;;;;;;30.80;19.48;94697.84;5034855;28;20053;-50
2021/05/22 04:33:01;;;;;;;6.57;5.80;;;;;;;30.94;19.45;94699.56;5034982;28;20052;-50
2021/05/22 04:35:28;;;;;;;7.70;5.70;;;;;;;30.42;19.77;94691.78;5033546;28;20368;-49
2021/05/22 04:37:56;;;;;;;7.18;6.07;;;;;;;30.83;19.42;94702.41;5034294;28;20041;-66
2021/05/22 04:40:23;;;;;;;6.78;5.35;;;;;;;30.12;20.12;94700.63;5034699;28;20045;-48
2021/05/22 04:42:51;;;;;;;6.47;5.88;;;;;;;30.86;19.27;94700.84;5034800;28;20057;-49
2021/05/22 04:45:18;;;;;;;7.88;5.68;;;;;;;30.32;20.07;94696.13;5034419;28;20076;-63
2021/05/22 04:47:45;;;;;;;9.38;6.50;;;;;;;32.50;19.39;94710.34;5009921;28;20061;-52
2021/05/22 04:50:13;;;;;;;11.68;6.70;;;;;;;31.26;19.85;94716.06;5034477;28;20056;-56
2021/05/22 04:52:40;;;;;;;12.15;6.00;;;;;;;31.60;19.11;94728.63;5034622;28;20049;-51
2021/05/22 04:55:12;;;;;;;6.78;5.70;;;;;;;31.36;19.27;94729.81;5034458;28;20041;-49
2021/05/22 04:57:40;;;;;;;9.00;5.80;;;;;;;31.52;19.37;94722.59;5033673;28;20738;-56
2021/05/22 05:00:09;;;;;;;7.10;6.18;;;;;;;30.80;20.00;94732.16;5034570;28;20056;-49
2021/05/22 05:02:36;;;;;;;6.78;6.18;;;;;;;31.02;19.73;94727.97;5034556;28;20045;-54
2021/05/22 05:05:05;;;;;;;8.27;5.70;;;;;;;31.23;19.73;94722.28;5034373;28;20052;-49
2021/05/22 05:07:38;;;;;;;40.40;6.38;;;;;;;31.06;20.25;94734.09;5033746;28;20491;-53
2021/05/22 05:10:07;;;;;;;8.05;5.65;;;;;;;31.04;19.86;94725.63;5034520;28;20061;-55
2021/05/22 05:12:34;;;;;;;8.60;6.97;;;;;;;30.40;20.51;94734.56;5034403;28;20045;-58
2021/05/22 05:15:03;;;;;;;9.77;6.35;;;;;;;31.35;19.69;94744.47;5016608;28;20076;-51
2021/05/22 05:17:33;;;;;;;7.40;6.65;;;;;;;30.68;20.41;94747.72;5030158;28;20334;-48
2021/05/22 05:20:09;;;;;;;10.02;6.32;;;;;;;31.37;20.07;94750.22;5014601;28;20046;-47
2021/05/22 05:22:39;;;;;;;7.72;6.93;;;;;;;31.08;19.94;94750.66;5015754;28;20046;-68
2021/05/22 05:25:12;;;;;;;8.93;7.20;;;;;;;30.80;20.53;94759.91;5017508;28;20045;-63
2021/05/22 05:27:45;;;;;;;7.45;6.72;;;;;;;31.23;19.96;94770.91;5017935;28;20046;-50
2021/05/22 05:30:13;;;;;;;8.75;6.45;;;;;;;31.49;19.67;94776.66;5018498;28;20056;-62
2021/05/22 05:32:41;;;;;;;13.60;7.18;;;;;;;31.38;19.73;94778.75;5018506;28;20053;-49
2021/05/22 05:35:10;;;;;;;8.32;6.40;;;;;;;31.02;20.08;94771.19;5018219;28;20045;-58
2021/05/22 05:37:42;;;;;;;;;;;;;;;30.81;21.10;94771.47;5021637;28;20052;-64
2021/05/22 05:40:12;;;;;;;8.40;6.20;;;;;;;31.13;20.58;94768.31;5038446;28;19917;-50
2021/05/22 05:42:39;;;;;;;7.03;5.93;;;;;;;32.13;19.57;94776.34;5036794;28;20367;-48
2021/05/22 05:45:10;;;;;;;7.80;6.15;;;;;;;31.49;20.38;94771.25;5037307;28;20049;-65
2021/05/22 05:47:37;;;;;;;7.28;6.53;;;;;;;32.30;19.39;94769.13;5037676;28;20572;-56
2021/05/22 05:50:05;;;;;;;7.80;6.65;;;;;;;32.04;20.05;94767.28;5018041;28;20046;-59
2021/05/22 05:52:32;;;;;;;7.30;6.00;;;;;;;33.25;18.91;94770.22;5018118;28;20072;-47
2021/05/22 05:54:59;;;;;;;9.25;7.30;;;;;;;33.67;18.84;94771.94;5036721;28;20056;-52
2021/05/22 05:57:32;;;;;;;7.88;7.07;;;;;;;34.15;17.71;94775.78;5036696;28;20072;-51
2021/05/22 06:00:10;;;;;;;7.82;6.65;;;;;;;33.45;17.98;94784.47;5037689;28;20057;-61
2021/05/22 06:02:40;;;;;;;8.35;6.25;;;;;;;33.72;17.61;94779.56;5020625;28;20045;-49
2021/05/22 06:05:08;;;;;;;7.10;6.35;;;;;;;33.49;17.85;94779.75;5037001;28;20053;-67
2021/05/22 06:07:35;;;;;;;6.05;5.55;;;;;;;33.25;17.73;94787.22;5037182;28;20041;-49
2021/05/22 06:10:04;;;;;;;8.30;5.65;;;;;;;33.26;17.87;94796.88;5037415;28;20072;-50
2021/05/22 06:12:32;;;;;;;8.68;6.05;;;;;;;33.24;18.16;94806.63;5037523;28;20052;-65
2021/05/22 06:15:10;;;;;;;10.20;6.20;;;;;;;33.23;17.90;94810.50;5036055;28;20049;-58
2021/05/22 06:17:37;;;;;;;10.02;6.57;;;;;;;33.55;17.63;94820.63;5053082;28;20068;-62
2021/05/22 06:20:05;;;;;;;8.05;6.95;;;;;;;33.15;17.70;94817.28;5057265;28;20781;-52
2021/05/22 06:22:32;;;;;;;7.20;5.65;;;;;;;33.85;17.15;94822.28;5054261;28;20049;-47
2021/05/22 06:25:00;;;;;;;7.97;6.70;;;;;;;34.30;16.42;94814.91;5037801;28;20048;-49
2021/05/22 06:27:27;;;;;;;8.18;6.35;;;;;;;33.89;16.85;94815.59;5036862;28;20045;-64
2021/05/22 06:29:54;;;;;;;7.90;6.50;;;;;;;33.87;17.29;94800.94;5036329;28;20041;-56
2021/05/22 06:32:21;;;;;;;7.05;6.15;;;;;;;34.70;16.89;94797.59;5037206;28;20053;-50
2021/05/22 06:34:49;;;;;;;11.80;6.05;;;;;;;35.81;16.09;94803.91;5035294;28;20041;-50
2021/05/22 06:37:16;;;;;;;9.93;6.47;;;;;;;35.87;15.51;94804.91;5035681;28;20103;-50
2021/05/22 06:39:44;;;;;;;8.02;6.90;;;;;;;36.55;14.87;94797.94;5036908;28;20388;-66
2021/05/22 06:42:11;;;;;;;10.02;6.20;;;;;;;36.18;15.29;94807.00;5036592;28;20053;-54
2021/05/22 06:44:43;;;;;;;9.38;6.72;;;;;;;36.08;14.93;94798.75;5032297;28;20357;-51
2021/05/22 06:47:17;;;;;;;7.53;6.50;;;;;;;35.56;15.68;94801.25;5029635;28;20060;-69
2021/05/22 06:49:44;;;;;;;8.52;6.55;;;;;;;35.75;15.54;94808.41;5036667;28;20053;-66
2021/05/22 06:52:11;;;;;;;11.05;7.00;;;;;;;34.95;16.33;94805.03;5036124;28;20372;-68
2021/05/22 06:54:41;;;;;;;8.88;6.88;;;;;;;34.59;16.78;94808.72;5036228;28;20045;-64
2021/05/22 06:57:08;;;;;;;9.88;7.00;;;;;;;34.68;16.27;94818.97;5035530;28;20041;-69
2021/05/22 06:59:36;;;;;;;8.27;6.93;;;;;;;34.96;16.38;94814.69;5036609;28;20770;-61
2021/05/22 07:02:03;;;;;;;7.60;6.40;;;;;;;35.30;15.95;94811.34;5036671;28;20053;-68
2021/05/22 07:04:30;;;;;;;6.93;6.22;;;;;;;35.23;16.31;94823.19;5035094;28;20056;-69
2021/05/22 07:06:59;;;;;;;10.32;6.47;;;;;;;35.64;15.78;94824.28;5035359;28;20468;-67
2021/05/22 07:09:26;;;;;;;6.28;5.50;;;;;;;34.85;16.41;94820.44;5036150;28;20053;-62
2021/05/22 07:11:53;;;;;;;7.18;5.65;;;;;;;35.81;15.71;94831.13;5035652;28;20433;-69
2021/05/22 07:14:32;;;;;;;7.65;5.75;;;;;;;35.50;15.94;94831.69;5018821;28;20048;-65
2021/05/22 07:17:00;;;;;;;7.82;5.07;;;;;;;35.20;16.06;94829.50;5034852;28;20045;-69
2021/05/22 07:19:35;;;;;;;6.22;5.00;;;;;;;35.29;16.02;94826.88;5034046;28;20049;-54
2021/05/22 07:22:19;;;;;;;9.07;4.90;;;;;;;35.29;15.84;94828.84;5036362;28;20045;-67
2021/05/22 07:24:48;;;;;;;5.68;5.07;;;;;;;35.50;16.12;94820.84;5036171;28;20060;-58
2021/05/22 07:27:16;;;;;;;5.45;4.57;;;;;;;35.59;16.42;94824.84;5035901;28;20052;-53
2021/05/22 07:29:47;;;;;;;8.70;5.10;;;;;;;35.53;16.19;94802.88;5035641;28;20064;-64
2021/05/22 07:32:15;;;;;;;5.45;4.95;;;;;;;35.60;16.15;94789.06;5035934;28;20060;-68
2021/05/22 07:34:42;;;;;;;6.63;5.05;;;;;;;36.13;15.44;94775.66;5018612;28;20064;-66
2021/05/22 07:37:09;;;;;;;6.93;4.90;;;;;;;36.03;15.91;94769.41;5035758;28;20049;-66
2021/05/22 07:39:40;;;;;;;8.95;4.80;;;;;;;35.51;15.68;94768.00;5034056;28;20050;-51
2021/05/22 07:42:15;;;;;;;6.95;4.95;;;;;;;35.08;16.19;94759.63;5018512;28;20041;-69
2021/05/22 07:44:49;;;;;;;5.10;4.60;;;;;;;35.10;17.12;94759.94;5035497;28;20041;-69
2021/05/22 07:47:20;;;;;;;7.10;5.43;;;;;;;34.96;16.79;94760.38;5032761;28;20052;-59
2021/05/22 07:49:48;;;;;;;5.50;4.80;;;;;;;34.91;16.58;94759.75;5017719;28;20045;-66
2021/05/22 07:52:15;;;;;;;8.30;5.20;;;;;;;34.92;16.08;94755.81;5014836;28;20429;-58
2021/05/22 07:54:43;;;;;;;7.72;4.93;;;;;;;34.69;16.58;94747.94;5015691;28;20052;-69
2021/05/22 07:57:11;;;;;;;8.75;5.35;;;;;;;35.22;16.26;94757.22;4998247;28;20045;-55
2021/05/22 07:59:38;;;;;;;7.45;5.00;;;;;;;35.61;15.78;94744.38;5024670;28;20056;-49
2021/05/22 08:02:07;;;;;;;7.18;5.00;;;;;;;36.13;15.64;94754.66;5034460;28;20056;-67
2021/05/22 08:04:35;;;;;;;5.25;4.72;;;;;;;36.31;15.46;94750.59;5035200;28;20045;-57
2021/05/22 08:07:02;;;;;;;6.70;4.63;;;;;;;37.04;15.24;94773.56;5034985;28;20049;-65
2021/05/22 08:09:30;;;;;;;5.47;4.50;;;;;;;36.57;15.40;94784.63;5034967;28;20041;-60
2021/05/22 08:11:58;;;;;;;7.38;4.20;;;;;;;36.69;15.43;94775.63;5035388;28;20732;-66
2021/05/22 08:14:32;;;;;;;4.43;4.00;;;;;;;37.01;15.26;94781.88;5035254;28;20432;-67
2021/05/22 08:17:07;;;;;;;7.43;4.80;;;;;;;36.82;15.24;94772.84;5029454;28;20056;-58
2021/05/22 08:19:34;;;;;;;7.55;4.95;;;;;;;36.50;15.35;94767.81;5015012;28;20453;-68
2021/05/22 08:22:02;;;;;;;8.02;5.03;;;;;;;36.48;14.87;94765.53;5014423;28;20045;-65
2021/05/22 08:24:29;;;;;;;5.72;4.47;;;;;;;37.08;14.78;94759.81;5015181;28;20041;-61
2021/05/22 08:26:56;;;;;;;6.55;4.10;;;;;;;37.47;14.64;94758.28;5023962;28;20372;-68
2021/05/22 08:29:30;;;;;;;7.43;3.95;;;;;;;37.43;14.46;94754.94;5034743;28;20045;-54
2021/05/22 08:31:57;;;;;;;6.25;4.60;;;;;;;37.32;14.59;94749.16;5030350;28;20045;-50
2021/05/22 08:34:27;;;;;;;9.13;4.50;;;;;;;37.58;13.96;94755.91;5034666;28;20056;-50
2021/05/22 08:36:56;;;;;;;6.55;4.55;;;;;;;37.05;14.23;94750.56;5034715;28;20057;-62
2021/05/22 08:39:23;;;;;;;7.07;5.15;;;;;;;36.50;15.08;94754.19;5034803;28;20049;-55
2021/05/22 08:41:51;;;;;;;6.05;4.47;;;;;;;37.24;14.85;94762.31;5034436;28;20460;-60
2021/05/22 08:44:18;;;;;;;5.32;4.03;;;;;;;37.10;14.93;94759.34;5016931;28;20057;-57
2021/05/22 08:46:46;;;;;;;9.63;4.60;;;;;;;37.88;13.77;94750.81;5033984;28;20057;-53
2021/05/22 08:49:14;;;;;;;4.88;3.92;;;;;;;38.03;14.84;94753.69;5034016;28;20054;-56
2021/05/22 08:51:42;;;;;;;4.97;4.20;;;;;;;37.84;14.05;94744.75;5034254;28;20052;-66
2021/05/22 08:54:11;;;;;;;6.00;4.32;;;;;;;37.17;14.94;94748.94;5016808;28;20056;-62
2021/05/22 08:56:47;;;;;;;4.38;3.80;;;;;;;37.59;14.33;94741.06;5023502;28;20060;-67
2021/05/22 08:59:14;;;;;;;4.50;4.10;;;;;;;37.26;15.26;94735.38;5034459;28;20056;-49
2021/05/22 09:01:41;;;;;;;4.68;4.13;;;;;;;38.35;14.23;94734.00;5034254;28;20078;-49
2021/05/22 09:04:08;;;;;;;6.22;4.20;;;;;;;38.09;13.72;94736.25;5034015;28;20400;-63
2021/05/22 09:06:54;;;;;;;4.88;4.38;;;;;;;37.56;14.85;94711.22;5034340;28;20045;-61
2021/05/22 09:09:21;;;;;;;5.78;3.50;;;;;;;38.42;13.02;94730.94;5016789;28;20045;-50
2021/05/22 09:11:52;;;;;;;4.72;2.88;;;;;;;38.01;12.67;94715.19;5016561;28;20068;-67
2021/05/22 09:14:38;;;;;;;4.50;2.10;;;;;;;38.62;10.92;94735.16;5034165;28;20051;-51
2021/05/22 09:17:08;;;;;;;2.88;1.75;;;;;;;38.05;10.24;94732.19;5044616;28;20052;-50
2021/05/22 09:19:35;;;;;;;2.15;1.20;;;;;;;38.42;10.03;94733.66;5051970;28;20495;-65
2021/05/22 09:22:20;;;;;;;1.52;1.20;;;;;;;37.88;10.90;94718.81;5034083;28;20049;-51
2021/05/22 09:24:57;;;;;;;3.72;1.20;;;;;;;38.81;10.35;94720.25;5034175;28;20045;-67
2021/05/22 09:27:26;;;;;;;1.70;1.23;;;;;;;38.39;12.01;94710.00;5034264;28;20052;-62
2021/05/22 09:29:53;;;;;;;2.30;1.40;;;;;;;39.11;11.05;94727.44;5016763;28;20057;-59
2021/05/22 09:32:21;;;;;;;3.92;1.10;;;;;;;38.66;9.94;94713.91;5016110;28;20084;-50
2021/05/22 09:34:50;;;;;;;1.75;1.15;;;;;;;38.46;9.73;94706.19;5034048;28;20440;-50
2021/05/22 09:37:17;;;;;;;1.73;1.00;;;;;;;38.43;9.90;94702.41;5034127;28;20046;-61
2021/05/22 09:39:46;;;;;;;3.05;1.20;;;;;;;37.92;9.96;94702.31;5034026;28;20527;-65
2021/05/22 09:42:13;;;;;;;2.08;1.23;;;;;;;38.47;10.12;94696.78;5033768;28;20052;-49
2021/05/22 09:44:40;;;;;;;1.55;1.10;;;;;;;38.39;9.46;94690.91;5033817;28;20045;-56
2021/05/22 09:47:08;;;;;;;1.40;1.23;;;;;;;38.48;9.26;94699.06;5032903;28;20049;-67
2021/05/22 09:49:37;;;;;;;2.15;1.10;;;;;;;39.03;8.99;94704.34;5032594;28;20049;-60
2021/05/22 09:52:25;;;;;;;1.83;1.30;;;;;;;38.58;8.82;94699.81;4972653;28;20050;-51
2021/05/22 09:54:53;;;;;;;1.92;1.20;;;;;;;38.63;8.79;94693.00;4972966;28;20043;-58
2021/05/22 09:57:20;;;;;;;3.88;1.48;;;;;;;38.46;9.48;94685.13;4973020;28;20453;-52
2021/05/22 10:00:16;;;;;;;1.90;1.20;;;;;;;38.27;10.00;94683.66;4972939;28;20054;-67
2021/05/22 10:02:57;;;;;;;1.55;1.20;;;;;;;38.65;9.34;94688.59;4972498;28;20450;-53
2021/05/22 10:05:25;;;;;;;2.88;1.20;;;;;;;38.60;9.30;94682.97;4973011;28;20046;-51
2021/05/22 10:07:54;;;;;;;1.83;0.98;;;;;;;38.52;9.44;94672.38;4972868;28;20050;-54
2021/05/22 10:10:23;;;;;;;3.92;1.40;;;;;;;38.58;9.09;94674.47;4976494;28;20051;-66
2021/05/22 10:12:51;;;;;;;1.40;1.05;;;;;;;39.61;8.57;94656.69;4975945;28;20486;-56
2021/05/22 10:15:19;;;;;;;7.38;1.20;;;;;;;38.89;9.31;94655.84;4976220;28;20042;-58
2021/05/22 10:17:49;;;;;;;1.95;1.30;;;;;;;38.72;9.60;94646.53;4975722;28;20129;-64
2021/05/22 10:20:17;;;;;;;2.50;1.27;;;;;;;38.53;9.31;94640.38;4976362;28;20051;-58
2021/05/22 10:22:44;;;;;;;2.63;1.20;;;;;;;38.90;8.52;94640.97;4975773;28;20149;-61
2021/05/22 10:25:13;;;;;;;1.65;1.10;;;;;;;38.27;9.62;94626.34;4976192;28;20051;-51
2021/05/22 10:27:42;;;;;;;2.42;1.23;;;;;;;39.86;8.84;94624.56;4976129;28;20544;-52
2021/05/22 10:30:13;;;;;;;3.42;1.30;;;;;;;39.29;9.22;94624.66;4976397;28;20043;-57
2021/05/22 10:32:40;;;;;;;;;;;;;;;38.43;9.41;94614.28;4976303;28;20457;-57
2021/05/22 10:35:10;;;;;;;2.20;1.20;;;;;;;38.73;9.19;94612.53;4960099;28;19917;-61
2021/05/22 10:37:41;;;;;;;3.33;1.40;;;;;;;39.01;9.56;94616.63;5030469;28;20083;-49
2021/05/22 10:40:09;;;;;;;;;;;;;;;38.68;10.01;94604.97;5037411;28;20045;-67
2021/05/22 10:42:36;;;;;;;2.75;1.30;;;;;;;39.71;9.12;94602.63;5036413;28;19931;-61
2021/05/22 10:45:28;;;;;;;3.45;1.52;;;;;;;39.27;9.98;94597.03;5036524;28;20345;-52
2021/05/22 10:48:11;;;;;;;;;;;;;;;38.82;9.88;94568.78;4997407;28;20054;-56
2021/05/22 10:50:48;;;;;;;2.22;1.25;;;;;;;39.39;9.98;94582.38;5032810;28;19920;-52
2021/05/22 10:53:19;;;;;;;2.58;2.00;;;;;;;38.87;10.66;94587.25;5036507;28;20068;-68
2021/05/22 10:56:17;;;;;;;6.25;2.40;;;;;;;38.96;11.35;94584.47;5036559;28;20050;-67
2021/05/22 10:58:59;;;;;;;5.38;2.30;;;;;;;39.23;10.44;94596.47;5036679;28;20080;-67
2021/05/22 11:01:43;;;;;;;4.07;2.70;;;;;;;38.79;11.29;94575.19;5036702;28;20049;-51
2021/05/22 11:04:14;;;;;;;4.10;2.10;;;;;;;38.87;11.01;94587.25;5035984;28;20049;-51
2021/05/22 11:07:01;;;;;;;2.63;1.65;;;;;;;39.53;9.44;94562.53;5036563;28;20049;-64
2021/05/22 11:09:32;;;;;;;3.70;1.60;;;;;;;39.83;9.34;94571.53;5036431;28;20471;-50
2021/05/22 11:12:00;;;;;;;2.95;2.05;;;;;;;39.46;9.99;94576.53;5036258;28;20068;-51
2021/05/22 11:14:37;;;;;;;6.28;2.15;;;;;;;38.55;11.59;94562.22;5035712;28;20056;-51
2021/05/22 11:17:22;;;;;;;3.85;2.60;;;;;;;39.21;10.99;94574.31;5028830;28;20061;-67
2021/05/22 11:20:02;;;;;;;7.03;2.53;;;;;;;39.41;10.92;94569.00;5035656;28;20060;-67
2021/05/22 11:22:55;;;;;;;4.70;2.72;;;;;;;38.77;11.49;94566.66;5035936;28;20056;-63
2021/05/22 11:25:23;;;;;;;2.78;1.70;;;;;;;40.86;8.82;94576.16;5035859;28;20053;-64
2021/05/22 11:27:58;;;;;;;2.30;1.88;;;;;;;39.05;9.41;94568.03;5018793;28;20050;-64
2021/05/22 11:30:35;;;;;;;2.55;1.60;;;;;;;39.00;9.31;94571.38;5036010;28;20041;-62
2021/05/22 11:33:09;;;;;;;2.13;1.48;;;;;;;39.30;9.23;94560.56;5035452;28;20053;-57
2021/05/22 11:35:48;;;;;;;2.95;1.70;;;;;;;39.52;9.00;94552.81;5035721;28;20052;-66
2021/05/22 11:38:18;;;;;;;46.38;38.35;;;;;;;40.19;8.84;94564.19;5035769;28;20045;-67
2021/05/22 11:40:52;;;;;;;14.25;12.77;;;;;;;39.07;9.15;94556.66;5035964;28;20053;-67
2021/05/22 11:43:30;;;;;;;7.55;6.07;;;;;;;40.05;8.35;94554.75;5034232;28;20103;-68
2021/05/22 11:46:11;;;;;;;5.10;4.25;;;;;;;39.90;8.84;94546.53;5038722;28;20467;-62
2021/05/22 11:48:44;;;;;;;4.22;3.00;;;;;;;40.53;8.20;94549.03;5055947;28;20332;-55